Cedar Park's Hourly Summary for Sunday, May 13, 2018
Hour Temp
(f)
RH
(%)
Solar Rad.
(MJ/m2)
Rainfall
(in)
Wind
(mph)
5/13/2018 12:00 AM 76 82 0 0 8.23
5/13/2018 1:00 AM 74 86 0 0 7.59
5/13/2018 2:00 AM 73 86 0 0 7.59
5/13/2018 3:00 AM 73 87 0 0 6.52
5/13/2018 4:00 AM 72 87 0 0 4.83
5/13/2018 5:00 AM 72 90 0 0 4.1
5/13/2018 6:00 AM 72 90 0.01 0 3.54
5/13/2018 7:00 AM 72 91 0.08 0 2.79
5/13/2018 8:00 AM 73 91 0.37 0 3.89
5/13/2018 9:00 AM 75 87 0.66 0 4.63
5/13/2018 10:00 AM 77 82 1.47 0 5.7
5/13/2018 11:00 AM 79 74 2.16 0 6.18
5/13/2018 12:00 PM 81 67 2.3 0 6.18
5/13/2018 1:00 PM 82 64 2.36 0 6.12
5/13/2018 2:00 PM 84 56 2.37 0 6.99
5/13/2018 3:00 PM 85 51 2.37 0 6.99
5/13/2018 4:00 PM 86 51 1.83 0 6.92
5/13/2018 5:00 PM 86 47 1.83 0 6.92
5/13/2018 6:00 PM 86 48 1.22 0 5.84
5/13/2018 7:00 PM 86 52 0.43 0 5.26
5/13/2018 8:00 PM 85 58 0.22 0 4.36
5/13/2018 9:00 PM 83 58 0.01 0 3.24
5/13/2018 10:00 PM 81 63 0 0 6.54
5/13/2018 11:00 PM 79 68 0 0 6.54
Data Summary 78 71 19.69 0.00 5.73